Time;durP1;ratioP1;P1;durP2;ratioP2;P2;SDS_P1;SDS_P2;PMS_P1;PMS_P2;Temp;Humidity;BMP_temperature;BMP_pressure;BME280_temperature;BME280_humidity;BME280_pressure;Samples;Min_cycle;Max_cycle;Signal;HPM_P1;HPM_P2
2021/08/07 00:00:17;;;;;;;10.33;3.80;;;;;;;16.34;100.00;95249.31;1047907;28;20771;-70
2021/08/07 00:00:48;;;;;;;8.63;3.50;;;;;;;16.32;100.00;95238.81;1043713;28;20021;-70
2021/08/07 00:01:19;;;;;;;7.00;3.40;;;;;;;16.30;100.00;95240.28;1047810;28;20032;-70
2021/08/07 00:01:49;;;;;;;5.95;2.90;;;;;;;16.27;100.00;95246.31;1047777;28;20016;-70
2021/08/07 00:02:19;;;;;;;7.13;3.30;;;;;;;16.25;100.00;95241.25;1047890;28;20074;-70
2021/08/07 00:02:50;;;;;;;6.73;3.23;;;;;;;16.24;100.00;95245.06;1045479;28;20354;-70
2021/08/07 00:03:20;;;;;;;6.73;3.37;;;;;;;16.21;100.00;95242.22;1047633;28;20025;-70
2021/08/07 00:03:51;;;;;;;7.57;3.23;;;;;;;16.19;100.00;95239.84;1047897;28;20039;-70
2021/08/07 00:04:22;;;;;;;10.07;3.53;;;;;;;16.19;100.00;95244.44;1039534;28;20448;-70
2021/08/07 00:04:52;;;;;;;7.40;3.37;;;;;;;16.16;100.00;95242.38;1038623;28;20014;-70
2021/08/07 00:05:23;;;;;;;5.67;3.10;;;;;;;16.16;100.00;95234.31;1044514;28;20037;-71
2021/08/07 00:05:53;;;;;;;7.13;3.57;;;;;;;16.11;100.00;95243.34;1043807;28;20486;-71
2021/08/07 00:06:23;;;;;;;6.27;3.17;;;;;;;16.12;100.00;95228.75;1048132;28;20029;-70
2021/08/07 00:06:54;;;;;;;6.57;3.40;;;;;;;16.11;100.00;95240.66;1048124;28;20484;-71
2021/08/07 00:07:27;;;;;;;6.40;2.90;;;;;;;16.08;100.00;95234.03;1047684;28;20024;-71
2021/08/07 00:07:57;;;;;;;6.18;3.17;;;;;;;16.10;100.00;95237.19;1047842;28;20024;-70
2021/08/07 00:08:28;;;;;;;7.87;3.47;;;;;;;16.07;100.00;95228.94;1043635;28;20395;-70
2021/08/07 00:08:58;;;;;;;5.53;3.00;;;;;;;16.05;100.00;95233.88;1041556;28;20033;-71
2021/08/07 00:09:29;;;;;;;5.80;3.40;;;;;;;16.03;100.00;95231.50;1044879;28;20025;-70
2021/08/07 00:09:59;;;;;;;9.90;3.70;;;;;;;16.03;100.00;95233.41;1043755;28;20013;-70
2021/08/07 00:10:30;;;;;;;7.67;3.40;;;;;;;15.96;100.00;95233.88;1043520;28;20037;-70
2021/08/07 00:11:00;;;;;;;6.83;3.63;;;;;;;15.93;100.00;95231.84;1043754;28;20025;-70
2021/08/07 00:11:30;;;;;;;8.20;3.10;;;;;;;15.94;100.00;95238.03;1043668;28;20032;-70
2021/08/07 00:12:01;;;;;;;5.80;3.23;;;;;;;15.92;100.00;95234.84;1047105;28;20071;-71
2021/08/07 00:12:31;;;;;;;10.27;4.17;;;;;;;15.92;100.00;95229.47;1047856;28;20020;-71
2021/08/07 00:13:02;;;;;;;11.70;3.73;;;;;;;15.94;100.00;95235.34;1047896;28;20480;-70
2021/08/07 00:13:32;;;;;;;6.40;3.43;;;;;;;15.95;100.00;95234.22;1047821;28;20109;-70
2021/08/07 00:14:03;;;;;;;7.77;3.30;;;;;;;15.95;100.00;95237.69;1047768;28;20051;-70
2021/08/07 00:14:33;;;;;;;10.10;3.43;;;;;;;15.97;100.00;95235.50;1048195;28;20027;-70
2021/08/07 00:15:05;;;;;;;7.07;3.30;;;;;;;15.95;100.00;95234.22;1046837;28;20021;-70
2021/08/07 00:15:35;;;;;;;8.02;3.28;;;;;;;15.95;100.00;95232.31;1048603;28;20032;-71
2021/08/07 00:16:06;;;;;;;7.60;3.53;;;;;;;15.92;100.00;95229.47;1049809;28;20055;-71
2021/08/07 00:16:36;;;;;;;6.67;3.73;;;;;;;15.94;100.00;95228.03;1049835;28;20499;-70
2021/08/07 00:17:06;;;;;;;6.30;3.40;;;;;;;15.92;100.00;95232.16;1045982;28;20029;-71
2021/08/07 00:17:37;;;;;;;6.87;3.70;;;;;;;15.93;100.00;95234.56;1046102;28;20021;-71
2021/08/07 00:18:07;;;;;;;5.37;3.03;;;;;;;15.88;100.00;95228.53;1049812;28;20017;-71
2021/08/07 00:18:39;;;;;;;8.63;3.43;;;;;;;15.89;100.00;95227.44;1046069;28;20013;-71
2021/08/07 00:19:10;;;;;;;7.60;3.45;;;;;;;15.91;100.00;95228.66;1047916;28;20108;-71
2021/08/07 00:19:40;;;;;;;7.70;3.90;;;;;;;15.91;100.00;95230.56;1047887;28;20040;-71
2021/08/07 00:20:11;;;;;;;7.47;3.57;;;;;;;15.92;100.00;95232.97;1047942;28;20063;-71
2021/08/07 00:20:41;;;;;;;7.93;3.63;;;;;;;15.95;100.00;95235.00;1048162;28;20070;-70
2021/08/07 00:21:12;;;;;;;8.23;3.30;;;;;;;15.95;100.00;95236.91;1048307;28;20530;-71
2021/08/07 00:21:42;;;;;;;6.80;3.20;;;;;;;15.95;100.00;95234.22;1048439;28;20028;-70
2021/08/07 00:22:15;;;;;;;7.53;3.43;;;;;;;15.92;100.00;95230.28;1048400;28;20086;-70
2021/08/07 00:22:45;;;;;;;6.03;3.20;;;;;;;15.99;100.00;95232.47;1048506;28;20153;-71
2021/08/07 00:23:16;;;;;;;7.00;3.37;;;;;;;16.01;100.00;95236.41;1048456;28;20032;-70
2021/08/07 00:23:46;;;;;;;7.87;3.80;;;;;;;16.01;100.00;95235.63;1048395;28;20012;-70
2021/08/07 00:24:16;;;;;;;10.57;3.70;;;;;;;16.03;100.00;95230.72;1048359;28;20016;-70
2021/08/07 00:24:47;;;;;;;8.20;3.40;;;;;;;16.05;100.00;95234.66;1048436;28;20016;-70
2021/08/07 00:25:18;;;;;;;6.38;3.33;;;;;;;16.06;100.00;95227.34;1048413;28;20047;-70
2021/08/07 00:25:48;;;;;;;8.63;3.27;;;;;;;16.06;100.00;95228.16;1043824;28;20481;-70
2021/08/07 00:26:19;;;;;;;8.27;3.83;;;;;;;16.03;100.00;95230.72;1043830;28;20060;-70
2021/08/07 00:26:49;;;;;;;7.73;2.87;;;;;;;16.04;100.00;95225.00;1043931;28;20020;-70
2021/08/07 00:27:19;;;;;;;7.50;3.60;;;;;;;16.04;100.00;95227.69;1043921;28;20021;-70
2021/08/07 00:27:50;;;;;;;7.53;3.60;;;;;;;16.06;100.00;95230.06;1044711;28;20017;-70
2021/08/07 00:28:20;;;;;;;7.30;3.60;;;;;;;16.06;100.00;95235.44;1044598;28;20025;-70
2021/08/07 00:28:51;;;;;;;7.53;3.17;;;;;;;16.05;100.00;95228.47;1044675;28;20091;-70
2021/08/07 00:29:21;;;;;;;6.57;3.23;;;;;;;16.05;100.00;95228.47;1044727;28;20075;-70
2021/08/07 00:29:52;;;;;;;8.10;3.60;;;;;;;16.07;100.00;95224.34;1044998;28;20524;-70
2021/08/07 00:30:22;;;;;;;8.20;3.47;;;;;;;16.08;100.00;95223.25;1044903;28;20024;-70
2021/08/07 00:30:52;;;;;;;7.90;4.00;;;;;;;16.09;100.00;95230.22;1044939;28;20029;-70
2021/08/07 00:31:23;;;;;;;7.60;3.63;;;;;;;16.11;100.00;95233.34;1044932;28;20362;-70
2021/08/07 00:31:53;;;;;;;7.20;3.43;;;;;;;16.11;100.00;95233.34;1044980;28;20465;-71
2021/08/07 00:32:24;;;;;;;8.37;3.23;;;;;;;16.13;100.00;95229.56;1044931;28;20017;-70
2021/08/07 00:32:54;;;;;;;8.23;3.83;;;;;;;16.15;100.00;95238.13;1045038;28;20025;-70
2021/08/07 00:33:25;;;;;;;5.53;3.40;;;;;;;16.15;100.00;95236.22;1044838;28;20470;-71
2021/08/07 00:33:56;;;;;;;8.00;3.60;;;;;;;16.16;100.00;95231.59;1044948;28;20040;-70
2021/08/07 00:34:26;;;;;;;6.03;3.20;;;;;;;16.18;100.00;95234.78;1044927;28;20082;-70
2021/08/07 00:34:56;;;;;;;6.80;3.50;;;;;;;16.17;100.00;95233.97;1045002;28;20055;-70
2021/08/07 00:35:27;;;;;;;8.27;3.73;;;;;;;16.15;100.00;95228.13;1044655;28;20071;-70
2021/08/07 00:35:58;;;;;;;10.18;3.75;;;;;;;16.16;100.00;95235.09;1044637;28;20078;-70
2021/08/07 00:36:28;;;;;;;9.07;3.87;;;;;;;16.16;100.00;95226.22;1044550;28;20025;-70
2021/08/07 00:37:03;;;;;;;6.93;3.53;;;;;;;16.15;100.00;95230.03;1044652;28;20128;-70
2021/08/07 00:37:34;;;;;;;7.82;3.75;;;;;;;16.16;100.00;95228.91;1046168;28;20021;-70
2021/08/07 00:38:04;;;;;;;6.03;3.10;;;;;;;16.16;100.00;95224.31;1044896;28;20478;-70
2021/08/07 00:38:34;;;;;;;6.60;3.70;;;;;;;16.17;100.00;95217.78;1044553;28;20036;-70
2021/08/07 00:39:05;;;;;;;8.33;3.40;;;;;;;16.17;100.00;95220.50;1044625;28;20441;-70
2021/08/07 00:39:35;;;;;;;8.00;3.90;;;;;;;16.19;100.00;95222.88;1044686;28;20025;-70
2021/08/07 00:40:06;;;;;;;7.07;4.10;;;;;;;16.22;100.00;95214.13;1044697;28;20036;-70
2021/08/07 00:40:37;;;;;;;9.37;3.70;;;;;;;16.21;100.00;95207.16;1048568;28;20043;-70
2021/08/07 00:41:07;;;;;;;8.27;3.70;;;;;;;16.21;100.00;95207.16;1044665;28;20029;-70
2021/08/07 00:41:37;;;;;;;10.67;3.63;;;;;;;16.22;100.00;95203.34;1044492;28;20024;-70
2021/08/07 00:42:08;;;;;;;6.43;3.83;;;;;;;16.22;100.00;95206.03;1048723;28;20413;-70
2021/08/07 00:42:39;;;;;;;8.90;3.73;;;;;;;16.21;100.00;95210.66;1044572;28;20489;-71
2021/08/07 00:43:10;;;;;;;6.63;3.75;;;;;;;16.20;100.00;95203.69;1040457;28;20363;-70
2021/08/07 00:43:40;;;;;;;6.37;3.70;;;;;;;16.17;100.00;95196.22;1040488;28;20071;-70
2021/08/07 00:44:11;;;;;;;7.93;3.57;;;;;;;16.20;100.00;95200.19;1043591;28;20032;-70
2021/08/07 00:44:41;;;;;;;7.50;3.40;;;;;;;16.18;100.00;95195.13;1044746;28;20036;-70
2021/08/07 00:45:12;;;;;;;5.17;3.47;;;;;;;16.19;100.00;95193.22;1049130;28;20027;-70
2021/08/07 00:45:42;;;;;;;8.27;3.30;;;;;;;16.18;100.00;95194.34;1049076;28;20031;-70
2021/08/07 00:46:13;;;;;;;7.40;3.70;;;;;;;16.19;100.00;95191.31;1049146;28;20606;-70
2021/08/07 00:46:43;;;;;;;6.77;3.47;;;;;;;16.16;100.00;95183.09;1048937;28;20074;-71
2021/08/07 00:47:13;;;;;;;6.93;3.03;;;;;;;16.17;100.00;95193.53;1044789;28;20047;-70
2021/08/07 00:47:44;;;;;;;8.03;3.80;;;;;;;16.16;100.00;95200.03;1044541;28;20021;-70
2021/08/07 00:48:14;;;;;;;9.57;3.83;;;;;;;16.15;100.00;95186.91;1044647;28;20021;-70
2021/08/07 00:48:45;;;;;;;8.73;3.60;;;;;;;16.14;100.00;95188.81;1044589;28;20020;-70
2021/08/07 00:49:15;;;;;;;6.47;3.53;;;;;;;16.18;100.00;95199.75;1044897;28;20036;-70
2021/08/07 00:49:46;;;;;;;7.60;3.60;;;;;;;16.16;100.00;95199.25;1044826;28;20024;-70
2021/08/07 00:50:16;;;;;;;9.33;3.70;;;;;;;16.16;100.00;95189.25;1044966;28;20036;-70
2021/08/07 00:50:47;;;;;;;6.50;3.27;;;;;;;16.19;100.00;95196.72;1044803;28;20024;-70
2021/08/07 00:51:17;;;;;;;7.57;3.90;;;;;;;16.17;100.00;95195.44;1044916;28;20051;-70
2021/08/07 00:51:47;;;;;;;7.07;3.53;;;;;;;16.16;100.00;95194.66;1044532;28;20092;-70
2021/08/07 00:52:18;;;;;;;9.90;3.57;;;;;;;16.17;100.00;95195.44;1040511;28;20025;-71
2021/08/07 00:52:48;;;;;;;7.27;3.70;;;;;;;16.18;100.00;95199.75;1040495;28;20355;-70
2021/08/07 00:53:19;;;;;;;5.80;3.50;;;;;;;16.20;100.00;95200.97;1040511;28;20025;-70
2021/08/07 00:53:50;;;;;;;7.13;3.87;;;;;;;16.21;100.00;95185.59;1044617;28;20013;-70
2021/08/07 00:54:20;;;;;;;8.60;3.90;;;;;;;16.19;100.00;95195.94;1044704;28;20036;-71
2021/08/07 00:54:52;;;;;;;9.47;4.23;;;;;;;16.19;100.00;95191.31;1044561;28;20032;-70
2021/08/07 00:55:23;;;;;;;8.90;4.35;;;;;;;16.20;100.00;95192.09;1044553;28;20509;-70
2021/08/07 00:55:53;;;;;;;9.83;5.20;;;;;;;16.15;100.00;95189.59;1044516;28;20032;-70
2021/08/07 00:56:23;;;;;;;7.23;3.80;;;;;;;16.15;100.00;95189.59;1044614;28;20025;-70
2021/08/07 00:56:54;;;;;;;12.53;4.20;;;;;;;16.13;100.00;95187.22;1044511;28;20025;-71
2021/08/07 00:57:27;;;;;;;9.97;3.90;;;;;;;16.10;100.00;95182.47;1044549;28;20029;-70
2021/08/07 00:57:58;;;;;;;8.95;3.95;;;;;;;16.10;100.00;95183.25;1044537;28;20032;-70
2021/08/07 00:58:28;;;;;;;10.00;4.33;;;;;;;16.07;100.00;95189.31;1044956;28;20501;-70
2021/08/07 00:58:59;;;;;;;9.27;3.60;;;;;;;16.07;100.00;95185.81;1044834;28;20032;-70
2021/08/07 00:59:30;;;;;;;8.93;4.28;;;;;;;16.05;100.00;95191.53;1044447;28;20397;-70
2021/08/07 01:00:00;;;;;;;7.23;4.00;;;;;;;16.04;100.00;95184.56;1044852;28;20036;-70
2021/08/07 01:00:31;;;;;;;6.43;4.00;;;;;;;15.99;100.00;95179.34;1044905;28;20025;-70
2021/08/07 01:01:12;;;;;;;10.03;4.40;;;;;;;16.00;100.00;95177.44;1044640;28;20021;-70
2021/08/07 01:01:55;;;;;;;8.63;3.72;;;;;;;15.90;100.00;95175.91;1044848;28;20519;-70
2021/08/07 01:02:25;;;;;;;7.53;3.75;;;;;;;15.91;100.00;95182.88;1044612;28;20036;-70
2021/08/07 01:03:09;;;;;;;8.03;3.90;;;;;;;15.91;100.00;95171.31;1044584;28;20497;-70
2021/08/07 01:03:47;;;;;;;7.88;3.97;;;;;;;15.83;100.00;95172.94;1040277;28;20414;-70
2021/08/07 01:04:27;;;;;;;8.63;3.97;;;;;;;15.80;100.00;95173.56;1043333;28;20036;-70
2021/08/07 01:05:09;;;;;;;6.53;3.45;;;;;;;15.77;100.00;95174.22;1040277;28;20029;-70
2021/08/07 01:05:44;;;;;;;10.35;4.45;;;;;;;15.72;100.00;95167.09;1040100;28;20038;-70
2021/08/07 01:06:41;;;;;;;7.97;3.75;;;;;;;15.72;100.00;95161.72;1036247;28;20578;-70
2021/08/07 01:07:25;;;;;;;7.13;3.63;;;;;;;15.68;100.00;95160.78;1032443;28;20105;-70
2021/08/07 01:08:13;;;;;;;7.20;3.67;;;;;;;15.72;100.00;95159.03;1037862;28;20026;-70
2021/08/07 01:09:07;;;;;;;9.75;3.80;;;;;;;15.71;100.00;95159.31;1033433;28;20042;-70
2021/08/07 01:09:48;;;;;;;7.95;3.80;;;;;;;15.62;100.00;95150.47;1036108;28;20372;-70
2021/08/07 01:10:25;;;;;;;7.13;3.80;;;;;;;15.63;100.00;95152.06;1039359;28;20057;-70
2021/08/07 01:11:05;;;;;;;6.68;3.60;;;;;;;15.62;100.00;95145.09;1041283;28;20030;-70
2021/08/07 01:11:38;;;;;;;8.05;3.97;;;;;;;15.60;100.00;95148.09;1040412;28;20445;-70
2021/08/07 01:12:20;;;;;;;7.72;3.85;;;;;;;15.65;100.00;95152.53;1036273;28;20033;-70
2021/08/07 01:13:11;;;;;;;8.52;4.13;;;;;;;15.65;100.00;95166.78;1035666;28;20491;-70
2021/08/07 01:13:46;;;;;;;8.85;4.03;;;;;;;15.59;100.00;95149.22;1039074;28;20463;-70
2021/08/07 01:14:17;;;;;;;6.60;3.70;;;;;;;15.62;100.00;95158.56;1040349;28;20448;-70
2021/08/07 01:14:49;;;;;;;6.75;3.65;;;;;;;15.62;100.00;95155.88;1043422;28;20025;-70
2021/08/07 01:15:24;;;;;;;8.77;3.80;;;;;;;15.56;100.00;95158.72;1040310;28;20075;-70
2021/08/07 01:16:23;;;;;;;7.80;4.10;;;;;;;15.60;100.00;95158.84;1041694;28;20038;-70
2021/08/07 01:16:53;;;;;;;7.72;3.95;;;;;;;15.63;100.00;95157.44;1040111;28;20427;-70
2021/08/07 01:17:25;;;;;;;7.53;3.43;;;;;;;15.66;100.00;95162.19;1036259;28;20038;-70
2021/08/07 01:17:56;;;;;;;8.70;3.80;;;;;;;15.67;100.00;95171.88;1036225;28;20076;-70
2021/08/07 01:18:26;;;;;;;7.57;3.50;;;;;;;15.68;100.00;95168.84;1032465;28;20081;-70
2021/08/07 01:18:57;;;;;;;6.37;3.53;;;;;;;15.71;100.00;95176.28;1036623;28;20018;-70
2021/08/07 01:19:31;;;;;;;11.43;3.50;;;;;;;15.73;100.00;95175.97;1032348;28;20026;-70
2021/08/07 01:20:17;;;;;;;10.10;3.63;;;;;;;15.74;100.00;95174.84;1029393;28;20747;-70
2021/08/07 01:20:51;;;;;;;9.30;3.75;;;;;;;15.76;100.00;95172.63;1036226;28;20113;-70
2021/08/07 01:21:25;;;;;;;7.57;3.83;;;;;;;15.77;100.00;95171.53;1042391;28;20032;-70
2021/08/07 01:21:59;;;;;;;7.53;4.00;;;;;;;15.81;100.00;95172.44;1042991;28;20025;-70
2021/08/07 01:22:58;;;;;;;8.32;3.72;;;;;;;15.79;100.00;95172.78;1040273;28;20021;-70
2021/08/07 01:23:36;;;;;;;7.63;3.50;;;;;;;15.80;100.00;95174.34;1040813;28;20033;-70
2021/08/07 01:24:10;;;;;;;8.32;3.30;;;;;;;15.82;100.00;95166.75;1040468;28;20036;-70
2021/08/07 01:24:51;;;;;;;7.70;3.60;;;;;;;15.84;100.00;95174.50;1044368;28;20025;-70
2021/08/07 01:25:21;;;;;;;9.27;3.75;;;;;;;15.86;100.00;95174.97;1036263;28;20450;-70
2021/08/07 01:26:27;;;;;;;6.87;3.43;;;;;;;15.85;100.00;95176.09;1038299;28;20061;-70
2021/08/07 01:27:23;;;;;;;7.15;3.22;;;;;;;15.84;100.00;95166.41;1041699;28;20033;-70
2021/08/07 01:27:53;;;;;;;6.57;3.53;;;;;;;15.82;100.00;95169.44;1048637;28;20518;-70
2021/08/07 01:28:25;;;;;;;8.27;3.83;;;;;;;15.84;100.00;95177.19;1044345;28;20025;-70
2021/08/07 01:28:57;;;;;;;6.55;3.40;;;;;;;15.86;100.00;95174.97;1041295;28;20609;-70
2021/08/07 01:29:28;;;;;;;7.38;3.35;;;;;;;15.86;100.00;95183.03;1040314;28;20461;-70
2021/08/07 01:29:58;;;;;;;8.83;3.37;;;;;;;15.86;100.00;95175.75;1040840;28;20099;-70
2021/08/07 01:30:29;;;;;;;5.70;3.37;;;;;;;15.90;100.00;95177.81;1036235;28;20082;-70
2021/08/07 01:30:59;;;;;;;6.57;3.40;;;;;;;15.92;100.00;95172.88;1036208;28;20029;-70
2021/08/07 01:31:30;;;;;;;7.77;3.43;;;;;;;15.90;100.00;95178.59;1036149;28;20053;-70
2021/08/07 01:32:00;;;;;;;11.13;3.70;;;;;;;15.89;100.00;95174.31;1036328;28;20076;-70
2021/08/07 01:32:31;;;;;;;7.77;3.63;;;;;;;15.89;100.00;95182.41;1040273;28;20040;-70
2021/08/07 01:33:02;;;;;;;7.93;3.42;;;;;;;15.89;100.00;95176.22;1040238;28;20502;-71
2021/08/07 01:33:33;;;;;;;5.93;3.30;;;;;;;15.91;100.00;95172.09;1040474;28;20033;-70
2021/08/07 01:34:03;;;;;;;9.77;3.83;;;;;;;15.90;100.00;95167.03;1040607;28;20026;-70
2021/08/07 01:34:34;;;;;;;6.80;3.33;;;;;;;15.88;100.00;95170.06;1044371;28;20025;-70
2021/08/07 01:35:06;;;;;;;9.07;4.30;;;;;;;15.88;100.00;95166.56;1048503;28;20054;-70
2021/08/07 01:35:36;;;;;;;14.55;3.80;;;;;;;15.91;100.00;95157.81;1048979;28;20024;-70
2021/08/07 01:36:07;;;;;;;6.63;3.53;;;;;;;15.90;100.00;95158.94;1044402;28;20036;-70
2021/08/07 01:36:37;;;;;;;9.50;4.10;;;;;;;15.89;100.00;95162.75;1044025;28;20025;-70
2021/08/07 01:37:07;;;;;;;10.03;3.80;;;;;;;15.89;100.00;95160.84;1036125;28;20034;-70
2021/08/07 01:37:38;;;;;;;6.90;3.67;;;;;;;15.91;100.00;95153.22;1035916;28;20022;-70
2021/08/07 01:38:09;;;;;;;8.97;4.63;;;;;;;15.92;100.00;95160.22;1036209;28;20018;-70
2021/08/07 01:38:41;;;;;;;6.40;4.00;;;;;;;15.93;100.00;95158.31;1036335;28;20018;-70
2021/08/07 01:39:12;;;;;;;8.25;3.90;;;;;;;15.87;100.00;95163.09;1032102;28;20030;-70
2021/08/07 01:39:43;;;;;;;6.23;3.70;;;;;;;15.89;100.00;95155.47;1032765;28;20101;-70
2021/08/07 01:40:14;;;;;;;7.97;4.10;;;;;;;15.83;100.00;95162.16;1031997;28;20026;-70
2021/08/07 01:40:44;;;;;;;10.93;4.60;;;;;;;15.81;100.00;95158.97;1032918;28;20038;-70
2021/08/07 01:41:22;;;;;;;6.53;3.40;;;;;;;15.83;100.00;95168.31;1040281;28;20033;-70
2021/08/07 01:41:52;;;;;;;9.20;3.83;;;;;;;15.83;100.00;95162.16;1041319;28;20041;-71
2021/08/07 01:42:24;;;;;;;6.93;3.50;;;;;;;15.79;100.00;95156.63;1044418;28;20489;-70
2021/08/07 01:42:54;;;;;;;9.35;3.60;;;;;;;15.78;100.00;95159.63;1044383;28;20063;-70
2021/08/07 01:43:25;;;;;;;7.07;3.60;;;;;;;15.79;100.00;95161.22;1045949;28;20440;-70
2021/08/07 01:43:55;;;;;;;7.80;3.93;;;;;;;15.79;100.00;95156.63;1048810;28;20029;-70
2021/08/07 01:44:25;;;;;;;6.93;3.70;;;;;;;15.76;100.00;95159.94;1048920;28;20051;-70
2021/08/07 01:44:56;;;;;;;12.27;4.00;;;;;;;15.76;100.00;95153.75;1048816;28;20454;-70
2021/08/07 01:45:26;;;;;;;5.83;3.63;;;;;;;15.77;100.00;95155.38;1048738;28;20025;-71
2021/08/07 01:45:57;;;;;;;7.83;3.70;;;;;;;15.78;100.00;95159.63;1048741;28;20028;-71
2021/08/07 01:46:31;;;;;;;7.10;3.30;;;;;;;15.80;100.00;95160.88;1044336;28;20028;-70
2021/08/07 01:47:07;;;;;;;7.97;3.83;;;;;;;15.79;100.00;95155.81;1040220;28;20465;-70
2021/08/07 01:47:42;;;;;;;8.45;3.47;;;;;;;15.78;100.00;95152.34;1036017;28;20071;-70
2021/08/07 01:48:45;;;;;;;6.15;3.53;;;;;;;15.72;100.00;95161.72;1040199;28;20088;-70
2021/08/07 01:49:16;;;;;;;8.80;3.65;;;;;;;15.77;100.00;95164.25;1041140;28;20029;-70
2021/08/07 01:49:56;;;;;;;7.50;3.70;;;;;;;15.77;100.00;95169.63;1044381;28;20029;-70
2021/08/07 01:50:42;;;;;;;6.38;3.42;;;;;;;15.75;100.00;95166.44;1040299;28;20044;-70
2021/08/07 01:51:20;;;;;;;5.50;3.40;;;;;;;15.76;100.00;95168.03;1040272;28;20076;-70
2021/08/07 01:52:02;;;;;;;6.47;3.50;;;;;;;15.74;100.00;95162.19;1035857;28;20105;-70
2021/08/07 01:52:38;;;;;;;9.38;3.83;;;;;;;15.76;100.00;95169.94;1044326;28;20554;-70
2021/08/07 01:53:09;;;;;;;7.10;3.50;;;;;;;15.75;100.00;95171.03;1044421;28;20028;-71
2021/08/07 01:53:40;;;;;;;8.90;3.50;;;;;;;15.78;100.00;95173.09;1044293;28;20009;-71
2021/08/07 01:54:11;;;;;;;6.27;3.23;;;;;;;15.79;100.00;95166.59;1031806;28;20280;-70
2021/08/07 01:54:45;;;;;;;8.77;3.73;;;;;;;15.79;100.00;95172.00;1032505;28;20073;-70
2021/08/07 01:55:20;;;;;;;8.05;3.67;;;;;;;15.82;100.00;95171.34;1040195;28;20072;-70
2021/08/07 01:56:04;;;;;;;7.60;4.00;;;;;;;15.82;100.00;95164.06;1039388;28;20501;-70
2021/08/07 01:56:37;;;;;;;11.27;3.75;;;;;;;15.83;100.00;95160.25;1037231;28;20033;-71
2021/08/07 01:57:09;;;;;;;6.05;3.60;;;;;;;15.79;100.00;95166.59;1036108;28;20114;-70
2021/08/07 01:57:42;;;;;;;6.65;3.53;;;;;;;15.79;100.00;95158.53;1036058;28;20510;-70
2021/08/07 01:58:29;;;;;;;6.55;3.50;;;;;;;15.75;100.00;95162.97;1036043;28;20018;-70
2021/08/07 01:59:07;;;;;;;10.23;3.63;;;;;;;15.73;100.00;95163.28;1033186;28;20026;-70
2021/08/07 01:59:37;;;;;;;6.10;3.38;;;;;;;15.74;100.00;95164.09;1035290;28;20033;-70
2021/08/07 02:00:12;;;;;;;7.10;3.43;;;;;;;15.77;100.00;95158.06;1043306;28;20028;-70
2021/08/07 02:00:43;;;;;;;8.35;3.90;;;;;;;15.78;100.00;95163.13;1041782;28;20025;-70
2021/08/07 02:01:15;;;;;;;6.50;3.40;;;;;;;15.80;100.00;95160.09;1040864;28;20072;-70
2021/08/07 02:01:47;;;;;;;5.43;3.38;;;;;;;15.82;100.00;95165.97;1034862;28;20517;-70
2021/08/07 02:02:17;;;;;;;9.95;3.70;;;;;;;15.80;100.00;95158.19;1032569;28;20069;-70
2021/08/07 02:02:48;;;;;;;6.80;3.33;;;;;;;15.82;100.00;95155.19;1040156;28;20081;-70
2021/08/07 02:03:18;;;;;;;7.75;3.55;;;;;;;15.80;100.00;95154.72;1036394;28;20439;-70
2021/08/07 02:03:49;;;;;;;6.03;3.43;;;;;;;15.77;100.00;95160.75;1036178;28;20018;-70
2021/08/07 02:04:20;;;;;;;5.90;3.33;;;;;;;15.77;100.00;95168.84;1036036;28;20090;-71
2021/08/07 02:04:50;;;;;;;5.60;3.03;;;;;;;15.77;100.00;95158.84;1036104;28;20014;-71
2021/08/07 02:05:21;;;;;;;6.90;3.93;;;;;;;15.77;100.00;95163.44;1036180;28;20450;-71
2021/08/07 02:05:51;;;;;;;9.13;3.50;;;;;;;15.79;100.00;95163.91;1036108;28;20479;-70
2021/08/07 02:06:22;;;;;;;7.00;3.50;;;;;;;15.80;100.00;95162.78;1040290;28;20014;-70
2021/08/07 02:06:52;;;;;;;7.27;3.67;;;;;;;15.80;100.00;95157.41;1040188;28;20025;-70
2021/08/07 02:07:23;;;;;;;7.97;3.30;;;;;;;15.80;100.00;95152.00;1040285;28;20017;-70
2021/08/07 02:07:53;;;;;;;5.10;3.10;;;;;;;15.82;100.00;95155.97;1040100;28;20347;-70
2021/08/07 02:08:23;;;;;;;6.87;3.30;;;;;;;15.82;100.00;95152.50;1044343;28;20010;-71
2021/08/07 02:08:54;;;;;;;9.00;4.00;;;;;;;15.82;100.00;95155.19;1044200;28;20017;-71
2021/08/07 02:09:25;;;;;;;7.93;3.83;;;;;;;15.82;100.00;95161.38;1036194;28;20014;-70
2021/08/07 02:09:55;;;;;;;7.43;3.80;;;;;;;15.81;100.00;95153.59;1040116;28;20021;-71
2021/08/07 02:10:25;;;;;;;7.97;3.47;;;;;;;15.81;100.00;95153.59;1032022;28;20428;-70
2021/08/07 02:10:56;;;;;;;6.60;3.67;;;;;;;15.80;100.00;95149.31;1036183;28;20064;-70
2021/08/07 02:11:27;;;;;;;7.27;3.83;;;;;;;15.79;100.00;95145.06;1032246;28;20032;-70
2021/08/07 02:11:57;;;;;;;6.53;3.70;;;;;;;15.79;100.00;95150.44;1036305;28;20379;-70
2021/08/07 02:12:27;;;;;;;6.73;3.80;;;;;;;15.80;100.00;95149.31;1040107;28;20597;-70
2021/08/07 02:12:58;;;;;;;7.27;4.47;;;;;;;15.78;100.00;95143.47;1036235;28;20463;-70
2021/08/07 02:13:29;;;;;;;6.90;3.70;;;;;;;15.77;100.00;95142.69;1040201;28;20021;-71
2021/08/07 02:13:59;;;;;;;7.17;3.87;;;;;;;15.77;100.00;95145.38;1040133;28;20099;-71
2021/08/07 02:14:29;;;;;;;8.53;4.07;;;;;;;15.76;100.00;95145.69;1040337;28;20079;-71
2021/08/07 02:15:00;;;;;;;8.43;3.90;;;;;;;15.74;100.00;95143.31;1036273;28;20052;-71
2021/08/07 02:15:30;;;;;;;11.30;3.57;;;;;;;15.72;100.00;95145.56;1044313;28;20163;-71
2021/08/07 02:16:02;;;;;;;8.20;3.93;;;;;;;15.72;100.00;95148.25;1040147;28;20037;-71
2021/08/07 02:16:32;;;;;;;6.13;3.58;;;;;;;15.72;100.00;95150.94;1040239;28;20025;-71
2021/08/07 02:17:03;;;;;;;8.03;3.77;;;;;;;15.72;100.00;95153.63;1044015;28;20032;-71
2021/08/07 02:17:33;;;;;;;8.97;3.80;;;;;;;15.73;100.00;95149.03;1035852;28;20060;-71
2021/08/07 02:18:04;;;;;;;8.60;3.70;;;;;;;15.75;100.00;95146.81;1032240;28;20041;-71
2021/08/07 02:18:34;;;;;;;10.90;4.00;;;;;;;15.77;100.00;95150.78;1036022;28;20487;-71
2021/08/07 02:19:05;;;;;;;7.27;3.73;;;;;;;15.78;100.00;95152.34;1036154;28;20029;-71
2021/08/07 02:19:36;;;;;;;6.90;3.80;;;;;;;15.79;100.00;95148.53;1040180;28;20014;-70
2021/08/07 02:20:08;;;;;;;8.10;3.70;;;;;;;15.81;100.00;95148.97;1040421;28;20382;-71
2021/08/07 02:20:39;;;;;;;7.57;3.80;;;;;;;15.81;100.00;95145.50;1044100;28;20017;-71
2021/08/07 02:21:10;;;;;;;8.45;3.60;;;;;;;15.81;100.00;95143.59;1044303;28;20013;-71
2021/08/07 02:21:41;;;;;;;8.25;3.75;;;;;;;15.79;100.00;95147.75;1044635;28;20485;-71
2021/08/07 02:22:12;;;;;;;7.20;3.30;;;;;;;15.79;100.00;95148.53;1044192;28;20017;-71
2021/08/07 02:22:46;;;;;;;5.80;3.40;;;;;;;15.80;100.00;95142.03;1039999;28;20260;-70
2021/08/07 02:23:16;;;;;;;6.45;3.25;;;;;;;15.79;100.00;95145.84;1040147;28;20028;-71
2021/08/07 02:23:47;;;;;;;8.07;4.13;;;;;;;15.79;100.00;95143.13;1040044;28;20084;-71
2021/08/07 02:24:18;;;;;;;7.47;4.35;;;;;;;15.80;100.00;95143.94;1040800;28;20021;-71
2021/08/07 02:24:48;;;;;;;6.53;3.50;;;;;;;15.77;100.00;95142.69;1044150;28;20021;-71
2021/08/07 02:25:19;;;;;;;8.57;4.10;;;;;;;15.76;100.00;95141.09;1044151;28;20020;-71
2021/08/07 02:26:08;;;;;;;10.53;4.53;;;;;;;15.74;100.00;95139.84;1040098;28;20017;-71
2021/08/07 02:26:38;;;;;;;6.60;3.90;;;;;;;15.75;100.00;95136.03;1040082;28;20041;-71
2021/08/07 02:27:08;;;;;;;7.37;3.60;;;;;;;15.75;100.00;95139.50;1040135;28;20557;-71
2021/08/07 02:27:39;;;;;;;5.87;3.47;;;;;;;15.76;100.00;95135.69;1042766;28;20030;-71
2021/08/07 02:28:10;;;;;;;6.50;3.73;;;;;;;15.75;100.00;95136.03;1040001;28;20407;-71
2021/08/07 02:28:41;;;;;;;6.22;3.75;;;;;;;15.71;100.00;95135.88;1040334;28;20020;-71
2021/08/07 02:29:11;;;;;;;10.00;3.53;;;;;;;15.72;100.00;95142.06;1044184;28;20033;-70
2021/08/07 02:29:42;;;;;;;7.43;4.00;;;;;;;15.75;100.00;95136.03;1040319;28;20009;-71
2021/08/07 02:30:12;;;;;;;10.30;4.50;;;;;;;15.76;100.00;95137.59;1044284;28;20385;-71
2021/08/07 02:30:43;;;;;;;7.33;4.57;;;;;;;15.72;100.00;95134.78;1044026;28;20013;-71
2021/08/07 02:31:13;;;;;;;7.90;4.00;;;;;;;15.71;100.00;95135.88;1044169;28;20013;-71
2021/08/07 02:31:43;;;;;;;11.07;4.67;;;;;;;15.69;100.00;95135.41;1040354;28;20021;-71